Dionisios Solomos — SZTM — position and weather

sailwx.info

Track history (hours):
 
Tides and Currents Weather Stations Pressure Air Temp Water Temp Dewpoint Dewpoint Depression Visibility Wind Speed Wind Dir Waves Ship Positions

Dionisios Solomos

Last reported at 2017-Nov-23 11:00 UTC. Time now 2017-Nov-23 11:24 UTC.
Position N 36°47' E 024°25'.

Length 122 m; draft 4.6 m.

Type: Ship. MMSI: 239627000.

Date/timePositionNaut miles runAvg speedWind from/ knotsBaromVisibWave heightAir tempDewpointWater temp
2017-Nov-23 11:00N 36°47' E 024°25'4 8.2
2017-Nov-23 10:30N 36°43' E 024°27'4 7.2
2017-Nov-23 10:00N 36°46' E 024°24'816.7
2017-Nov-23 09:30N 36°46' E 024°35'4 7.4
2017-Nov-23 09:00N 36°44' E 024°39'917.8
2017-Nov-23 08:30N 36°41' E 024°49'815.5
2017-Nov-23 08:01N 36°37' E 024°57'5 9.5
2017-Nov-23 07:30N 36°37' E 025°03'511.1
2017-Nov-23 07:01N 36°40' E 025°09'713.6
2017-Nov-23 06:30N 36°43' E 025°16'612.5
2017-Nov-23 06:00N 36°37' E 025°18'917.9
2017-Nov-23 05:30N 36°29' E 025°21'713.2
2017-Nov-23 05:00N 36°23' E 025°26'0 0.0
2017-Nov-23 04:30N 36°23' E 025°26'24 5.0
2017-Nov-22 23:46N 36°37' E 025°02'414.4
2017-Nov-22 23:31N 36°37' E 024°57'4 7.1
2017-Nov-22 23:01N 36°40' E 024°54'917.7
2017-Nov-22 22:31N 36°43' E 024°44'816.4
2017-Nov-22 22:00N 36°47' E 024°35'4 7.5
2017-Nov-22 21:31N 36°47' E 024°30'510.3
2017-Nov-22 21:01N 36°43' E 024°26'1 1.5
2017-Nov-22 20:30N 36°43' E 024°26'612.3
2017-Nov-22 20:01N 36°49' E 024°27'917.1
2017-Nov-22 19:31N 36°55' E 024°35'  
2017-Nov-20 00:29N 37°57' E 023°38'0 0.0
2017-Nov-19 23:58N 37°57' E 023°38'0 0.0
2017-Nov-19 23:29N 37°57' E 023°38'0 0.0
2017-Nov-19 22:58N 37°57' E 023°38'0 0.0
2017-Nov-19 22:29N 37°57' E 023°38'0 0.0
2017-Nov-19 21:57N 37°57' E 023°38'0 0.0
2017-Nov-19 21:29N 37°57' E 023°38'0 0.0
2017-Nov-19 21:00N 37°57' E 023°38'0 0.0
2017-Nov-19 20:29N 37°57' E 023°38'0 0.0
2017-Nov-19 19:58N 37°57' E 023°38'0 0.8
2017-Nov-19 19:30N 37°56' E 023°38'4 8.9
2017-Nov-19 19:00N 37°52' E 023°39'917.3
2017-Nov-19 18:30N 37°44' E 023°44'816.7
2017-Nov-19 18:00N 37°38' E 023°51'4 0.1
2017-Nov-17 14:16N 37°39' E 023°47'417.1
2017-Nov-17 14:00N 37°41' E 023°42'917.3
2017-Nov-17 13:31N 37°49' E 023°38'714.7
2017-Nov-17 13:00N 37°57' E 023°38'0 0.1
2017-Nov-17 11:01N 37°57' E 023°38'0 0.0
2017-Nov-17 10:58N 37°57' E 023°38'0 0.0
2017-Nov-17 10:29N 37°57' E 023°38'0 0.0
2017-Nov-17 09:58N 37°57' E 023°38'0 0.0
2017-Nov-17 09:29N 37°57' E 023°38'0 0.0
2017-Nov-17 09:00N 37°57' E 023°38'0 0.0
2017-Nov-17 08:28N 37°57' E 023°38'0 0.0
2017-Nov-17 08:00N 37°57' E 023°38'0 0.0
2017-Nov-17 07:26N 37°57' E 023°38'0 0.0
2017-Nov-17 07:00N 37°57' E 023°38'0 0.0
2017-Nov-17 06:28N 37°57' E 023°38'0 0.0
2017-Nov-17 05:57N 37°57' E 023°38'0 0.0
2017-Nov-17 05:23N 37°57' E 023°38'0 0.0
2017-Nov-17 04:58N 37°57' E 023°38'0 0.0
2017-Nov-17 04:25N 37°57' E 023°38'0 0.0
2017-Nov-17 03:58N 37°57' E 023°38'0 0.0
2017-Nov-17 03:28N 37°57' E 023°38'0 0.0
2017-Nov-17 02:59N 37°57' E 023°38'0 0.0
2017-Nov-17 02:30N 37°57' E 023°38'0 0.0
2017-Nov-17 02:00N 37°57' E 023°38'0 0.0
2017-Nov-17 01:30N 37°57' E 023°38'0 0.0
2017-Nov-17 01:00N 37°57' E 023°38'0 0.0
2017-Nov-17 00:29N 37°57' E 023°38'0 0.0
2017-Nov-16 23:59N 37°57' E 023°38'0 0.0
2017-Nov-16 23:30N 37°57' E 023°38'0 0.0
2017-Nov-16 22:58N 37°57' E 023°38'0 0.0
2017-Nov-16 22:28N 37°57' E 023°38'0 0.0
2017-Nov-16 22:00N 37°57' E 023°38'0 0.0
2017-Nov-16 21:28N 37°57' E 023°38'0 0.0
2017-Nov-16 20:58N 37°57' E 023°38'0 0.0
2017-Nov-16 20:28N 37°57' E 023°38'0 0.0
2017-Nov-16 19:58N 37°57' E 023°38'0 0.0
2017-Nov-16 19:28N 37°57' E 023°38'0 0.0
2017-Nov-16 19:00N 37°57' E 023°38'0 0.0
2017-Nov-16 18:29N 37°57' E 023°38'2 3.9
2017-Nov-16 18:01N 37°55' E 023°37'917.1
2017-Nov-16 17:30N 37°47' E 023°42'816.9
2017-Nov-16 17:00N 37°40' E 023°47'6 0.2
2017-Nov-15 14:46N 37°36' E 023°54'417.2
2017-Nov-15 14:30N 37°38' E 023°49'816.5
2017-Nov-15 14:00N 37°43' E 023°41'917.2
2017-Nov-15 13:30N 37°52' E 023°38'5 9.4
2017-Nov-15 12:59N 37°57' E 023°38'0 0.0
2017-Nov-15 12:30N 37°57' E 023°38'0 0.0
2017-Nov-15 11:58N 37°57' E 023°38'0 0.0
2017-Nov-15 11:30N 37°57' E 023°38'0 0.0
2017-Nov-15 11:00N 37°57' E 023°38'0 0.0
2017-Nov-15 10:30N 37°57' E 023°38'0 0.0
2017-Nov-15 09:58N 37°57' E 023°38'0 0.0
2017-Nov-15 09:30N 37°57' E 023°38'0 0.0
2017-Nov-15 08:58N 37°57' E 023°38'0 0.0
2017-Nov-15 08:30N 37°57' E 023°38'0 0.0
2017-Nov-15 07:57N 37°57' E 023°38'0 0.0
2017-Nov-15 07:28N 37°57' E 023°38'0 0.0
2017-Nov-15 06:59N 37°57' E 023°38'0 0.0
2017-Nov-15 06:27N 37°57' E 023°38'0 0.0
2017-Nov-15 05:56N 37°57' E 023°38'0 0.0
2017-Nov-15 05:25N 37°57' E 023°38'0 0.0
2017-Nov-15 05:00N 37°57' E 023°38'0 0.0
2017-Nov-15 04:28N 37°57' E 023°38'0 0.0
2017-Nov-15 03:59N 37°57' E 023°38'0 0.0
2017-Nov-15 03:29N 37°57' E 023°38'0 0.0
2017-Nov-15 03:00N 37°57' E 023°38'0 0.0
2017-Nov-15 02:28N 37°57' E 023°38'0 0.0
2017-Nov-15 01:57N 37°57' E 023°38'0 0.0
2017-Nov-15 01:30N 37°57' E 023°38'0 0.0
2017-Nov-15 00:58N 37°57' E 023°38'0 0.0
2017-Nov-15 00:29N 37°57' E 023°38'0 0.0
2017-Nov-14 23:59N 37°57' E 023°38'0 0.0
2017-Nov-14 23:29N 37°57' E 023°38'0 0.0
2017-Nov-14 23:00N 37°57' E 023°38'0 0.0
2017-Nov-14 22:29N 37°57' E 023°38'0 0.0
2017-Nov-14 22:00N 37°57' E 023°38'0 0.0
2017-Nov-14 21:27N 37°57' E 023°38'0 0.0
2017-Nov-14 21:00N 37°57' E 023°38'0 0.0
2017-Nov-14 20:28N 37°57' E 023°38'0 0.0
2017-Nov-14 19:55N 37°57' E 023°38'0 0.0
2017-Nov-14 19:27N 37°57' E 023°38'0 0.0
2017-Nov-14 18:55N 37°57' E 023°38'0 0.0
2017-Nov-14 18:30N 37°57' E 023°38'0 0.0
2017-Nov-14 18:00N 37°57' E 023°38'4 8.8
2017-Nov-14 17:31N 37°52' E 023°39'917.6
2017-Nov-14 17:00N 37°44' E 023°44'816.8
2017-Nov-14 16:30N 37°38' E 023°51'917.3
2017-Nov-14 15:58N 37°34' E 024°02'  
Track history (hours):
 
Tides and Currents Weather Stations Pressure Air Temp Water Temp Dewpoint Dewpoint Depression Visibility Wind Speed Wind Dir Waves Ship Positions

Dionisios Solomos

Last reported at 2017-Nov-23 11:00 UTC. Time now 2017-Nov-23 11:24 UTC.
Position N 36°47' E 024°25'.

Length 122 m; draft 4.6 m.

Type: Ship. MMSI: 239627000.

Date/timePositionNaut miles runAvg speedWind from/ knotsBaromVisibWave heightAir tempDewpointWater temp
2017-Nov-23 11:00N 36°47' E 024°25'4 8.2
2017-Nov-23 10:30N 36°43' E 024°27'4 7.2
2017-Nov-23 10:00N 36°46' E 024°24'816.7
2017-Nov-23 09:30N 36°46' E 024°35'4 7.4
2017-Nov-23 09:00N 36°44' E 024°39'917.8
2017-Nov-23 08:30N 36°41' E 024°49'815.5
2017-Nov-23 08:01N 36°37' E 024°57'5 9.5
2017-Nov-23 07:30N 36°37' E 025°03'511.1
2017-Nov-23 07:01N 36°40' E 025°09'713.6
2017-Nov-23 06:30N 36°43' E 025°16'612.5
2017-Nov-23 06:00N 36°37' E 025°18'917.9
2017-Nov-23 05:30N 36°29' E 025°21'713.2
2017-Nov-23 05:00N 36°23' E 025°26'0 0.0
2017-Nov-23 04:30N 36°23' E 025°26'24 5.0
2017-Nov-22 23:46N 36°37' E 025°02'414.4
2017-Nov-22 23:31N 36°37' E 024°57'4 7.1
2017-Nov-22 23:01N 36°40' E 024°54'917.7
2017-Nov-22 22:31N 36°43' E 024°44'816.4
2017-Nov-22 22:00N 36°47' E 024°35'4 7.5
2017-Nov-22 21:31N 36°47' E 024°30'510.3
2017-Nov-22 21:01N 36°43' E 024°26'1 1.5
2017-Nov-22 20:30N 36°43' E 024°26'612.3
2017-Nov-22 20:01N 36°49' E 024°27'917.1
2017-Nov-22 19:31N 36°55' E 024°35'  
2017-Nov-20 00:29N 37°57' E 023°38'0 0.0
2017-Nov-19 23:58N 37°57' E 023°38'0 0.0
2017-Nov-19 23:29N 37°57' E 023°38'0 0.0
2017-Nov-19 22:58N 37°57' E 023°38'0 0.0
2017-Nov-19 22:29N 37°57' E 023°38'0 0.0
2017-Nov-19 21:57N 37°57' E 023°38'0 0.0
2017-Nov-19 21:29N 37°57' E 023°38'0 0.0
2017-Nov-19 21:00N 37°57' E 023°38'0 0.0
2017-Nov-19 20:29N 37°57' E 023°38'0 0.0
2017-Nov-19 19:58N 37°57' E 023°38'0 0.8
2017-Nov-19 19:30N 37°56' E 023°38'4 8.9
2017-Nov-19 19:00N 37°52' E 023°39'917.3
2017-Nov-19 18:30N 37°44' E 023°44'816.7
2017-Nov-19 18:00N 37°38' E 023°51'4 0.1
2017-Nov-17 14:16N 37°39' E 023°47'417.1
2017-Nov-17 14:00N 37°41' E 023°42'917.3
2017-Nov-17 13:31N 37°49' E 023°38'714.7
2017-Nov-17 13:00N 37°57' E 023°38'0 0.1
2017-Nov-17 11:01N 37°57' E 023°38'0 0.0
2017-Nov-17 10:58N 37°57' E 023°38'0 0.0
2017-Nov-17 10:29N 37°57' E 023°38'0 0.0
2017-Nov-17 09:58N 37°57' E 023°38'0 0.0
2017-Nov-17 09:29N 37°57' E 023°38'0 0.0
2017-Nov-17 09:00N 37°57' E 023°38'0 0.0
2017-Nov-17 08:28N 37°57' E 023°38'0 0.0
2017-Nov-17 08:00N 37°57' E 023°38'0 0.0
2017-Nov-17 07:26N 37°57' E 023°38'0 0.0
2017-Nov-17 07:00N 37°57' E 023°38'0 0.0
2017-Nov-17 06:28N 37°57' E 023°38'0 0.0
2017-Nov-17 05:57N 37°57' E 023°38'0 0.0
2017-Nov-17 05:23N 37°57' E 023°38'0 0.0
2017-Nov-17 04:58N 37°57' E 023°38'0 0.0
2017-Nov-17 04:25N 37°57' E 023°38'0 0.0
2017-Nov-17 03:58N 37°57' E 023°38'0 0.0
2017-Nov-17 03:28N 37°57' E 023°38'0 0.0
2017-Nov-17 02:59N 37°57' E 023°38'0 0.0
2017-Nov-17 02:30N 37°57' E 023°38'0 0.0
2017-Nov-17 02:00N 37°57' E 023°38'0 0.0
2017-Nov-17 01:30N 37°57' E 023°38'0 0.0
2017-Nov-17 01:00N 37°57' E 023°38'0 0.0
2017-Nov-17 00:29N 37°57' E 023°38'0 0.0
2017-Nov-16 23:59N 37°57' E 023°38'0 0.0
2017-Nov-16 23:30N 37°57' E 023°38'0 0.0
2017-Nov-16 22:58N 37°57' E 023°38'0 0.0
2017-Nov-16 22:28N 37°57' E 023°38'0 0.0
2017-Nov-16 22:00N 37°57' E 023°38'0 0.0
2017-Nov-16 21:28N 37°57' E 023°38'0 0.0
2017-Nov-16 20:58N 37°57' E 023°38'0 0.0
2017-Nov-16 20:28N 37°57' E 023°38'0 0.0
2017-Nov-16 19:58N 37°57' E 023°38'0 0.0
2017-Nov-16 19:28N 37°57' E 023°38'0 0.0
2017-Nov-16 19:00N 37°57' E 023°38'0 0.0
2017-Nov-16 18:29N 37°57' E 023°38'2 3.9
2017-Nov-16 18:01N 37°55' E 023°37'917.1
2017-Nov-16 17:30N 37°47' E 023°42'816.9
2017-Nov-16 17:00N 37°40' E 023°47'6 0.2
2017-Nov-15 14:46N 37°36' E 023°54'417.2
2017-Nov-15 14:30N 37°38' E 023°49'816.5
2017-Nov-15 14:00N 37°43' E 023°41'917.2
2017-Nov-15 13:30N 37°52' E 023°38'5 9.4
2017-Nov-15 12:59N 37°57' E 023°38'0 0.0
2017-Nov-15 12:30N 37°57' E 023°38'0 0.0
2017-Nov-15 11:58N 37°57' E 023°38'0 0.0
2017-Nov-15 11:30N 37°57' E 023°38'0 0.0
2017-Nov-15 11:00N 37°57' E 023°38'0 0.0
2017-Nov-15 10:30N 37°57' E 023°38'0 0.0
2017-Nov-15 09:58N 37°57' E 023°38'0 0.0
2017-Nov-15 09:30N 37°57' E 023°38'0 0.0
2017-Nov-15 08:58N 37°57' E 023°38'0 0.0
2017-Nov-15 08:30N 37°57' E 023°38'0 0.0
2017-Nov-15 07:57N 37°57' E 023°38'0 0.0
2017-Nov-15 07:28N 37°57' E 023°38'0 0.0
2017-Nov-15 06:59N 37°57' E 023°38'0 0.0
2017-Nov-15 06:27N 37°57' E 023°38'0 0.0
2017-Nov-15 05:56N 37°57' E 023°38'0 0.0
2017-Nov-15 05:25N 37°57' E 023°38'0 0.0
2017-Nov-15 05:00N 37°57' E 023°38'0 0.0
2017-Nov-15 04:28N 37°57' E 023°38'0 0.0
2017-Nov-15 03:59N 37°57' E 023°38'0 0.0
2017-Nov-15 03:29N 37°57' E 023°38'0 0.0
2017-Nov-15 03:00N 37°57' E 023°38'0 0.0
2017-Nov-15 02:28N 37°57' E 023°38'0 0.0
2017-Nov-15 01:57N 37°57' E 023°38'0 0.0
2017-Nov-15 01:30N 37°57' E 023°38'0 0.0
2017-Nov-15 00:58N 37°57' E 023°38'0 0.0
2017-Nov-15 00:29N 37°57' E 023°38'0 0.0
2017-Nov-14 23:59N 37°57' E 023°38'0 0.0
2017-Nov-14 23:29N 37°57' E 023°38'0 0.0
2017-Nov-14 23:00N 37°57' E 023°38'0 0.0
2017-Nov-14 22:29N 37°57' E 023°38'0 0.0
2017-Nov-14 22:00N 37°57' E 023°38'0 0.0
2017-Nov-14 21:27N 37°57' E 023°38'0 0.0
2017-Nov-14 21:00N 37°57' E 023°38'0 0.0
2017-Nov-14 20:28N 37°57' E 023°38'0 0.0
2017-Nov-14 19:55N 37°57' E 023°38'0 0.0
2017-Nov-14 19:27N 37°57' E 023°38'0 0.0
2017-Nov-14 18:55N 37°57' E 023°38'0 0.0
2017-Nov-14 18:30N 37°57' E 023°38'0 0.0
2017-Nov-14 18:00N 37°57' E 023°38'4 8.8
2017-Nov-14 17:31N 37°52' E 023°39'917.6
2017-Nov-14 17:00N 37°44' E 023°44'816.8
2017-Nov-14 16:30N 37°38' E 023°51'917.3
2017-Nov-14 15:58N 37°34' E 024°02'  

Dump ship's entire track history